Time;durP1;ratioP1;P1;durP2;ratioP2;P2;SDS_P1;SDS_P2;PMS_P1;PMS_P2;Temp;Humidity;BMP_temperature;BMP_pressure;BME280_temperature;BME280_humidity;BME280_pressure;Samples;Min_cycle;Max_cycle;Signal;HPM_P1;HPM_P2
2022/05/23 00:01:06;;;;;;;0.10;0.10;;;;;;;;;;5067718;28;20265;-67
2022/05/23 00:03:35;;;;;;;0.10;0.10;;;;;;;;;;5080178;28;20291;-66
2022/05/23 00:06:03;;;;;;;0.10;0.10;;;;;;;;;;5067904;28;20344;-67
2022/05/23 00:08:29;;;;;;;0.07;0.07;;;;;;;;;;5079458;28;20422;-66
2022/05/23 00:10:55;;;;;;;0.10;0.10;;;;;;;;;;5066030;28;20243;-66
2022/05/23 00:13:22;;;;;;;0.10;0.10;;;;;;;;;;5081174;28;20202;-67
2022/05/23 00:15:48;;;;;;;0.10;0.10;;;;;;;;;;5064437;28;20237;-66
2022/05/23 00:18:15;;;;;;;0.00;0.00;;;;;;;;;;5083514;28;20217;-67
2022/05/23 00:20:42;;;;;;;0.10;0.10;;;;;;;;;;5062531;28;20242;-66
2022/05/23 00:23:08;;;;;;;0.00;0.00;;;;;;;;;;5084775;28;20297;-67
2022/05/23 00:25:34;;;;;;;0.10;0.10;;;;;;;;;;5060291;28;20252;-66
2022/05/23 00:28:01;;;;;;;0.10;0.10;;;;;;;;;;5086921;28;20206;-67
2022/05/23 00:30:27;;;;;;;0.10;0.10;;;;;;;;;;5058568;28;20280;-67
2022/05/23 00:35:41;;;;;;;0.10;0.10;;;;;;;;;;5061172;28;20282;-67
2022/05/23 00:38:08;;;;;;;0.10;0.10;;;;;;;;;;5084862;28;20250;-66
2022/05/23 00:40:39;;;;;;;0.10;0.10;;;;;;;;;;5060475;28;20240;-66
2022/05/23 00:43:14;;;;;;;0.00;0.00;;;;;;;;;;5085488;28;20241;-66
2022/05/23 00:45:40;;;;;;;0.10;0.10;;;;;;;;;;5061859;28;20307;-67
2022/05/23 00:48:07;;;;;;;0.10;0.10;;;;;;;;;;5085248;28;20210;-66
2022/05/23 00:50:34;;;;;;;0.00;0.00;;;;;;;;;;5060196;28;20246;-66
2022/05/23 00:53:02;;;;;;;0.00;0.00;;;;;;;;;;5086420;28;20202;-67
2022/05/23 00:55:30;;;;;;;0.10;0.10;;;;;;;;;;5058495;28;20251;-66
2022/05/23 00:57:58;;;;;;;0.10;0.10;;;;;;;;;;5087823;28;20397;-66
2022/05/23 01:00:25;;;;;;;0.10;0.10;;;;;;;;;;5057765;28;20257;-66
2022/05/23 01:02:52;;;;;;;0.00;0.00;;;;;;;;;;5089234;28;20213;-66
2022/05/23 01:05:19;;;;;;;0.00;0.00;;;;;;;;;;5055957;28;20515;-67
2022/05/23 01:07:45;;;;;;;0.10;0.10;;;;;;;;;;5090453;28;20250;-66
2022/05/23 01:10:13;;;;;;;0.10;0.10;;;;;;;;;;5054025;28;20429;-66
2022/05/23 01:12:40;;;;;;;0.10;0.10;;;;;;;;;;5092656;28;20261;-66
2022/05/23 01:15:16;;;;;;;0.03;0.03;;;;;;;;;;5052894;28;20268;-66
2022/05/23 01:17:42;;;;;;;0.10;0.10;;;;;;;;;;5091305;28;20206;-67
2022/05/23 01:20:09;;;;;;;0.00;0.00;;;;;;;;;;5052583;28;20208;-67
2022/05/23 01:22:42;;;;;;;0.10;0.10;;;;;;;;;;5095980;28;20312;-67
2022/05/23 01:25:11;;;;;;;0.00;0.00;;;;;;;;;;5056872;28;20227;-66
2022/05/23 01:27:40;;;;;;;0.10;0.10;;;;;;;;;;5096618;28;20202;-66
2022/05/23 01:30:07;;;;;;;0.10;0.10;;;;;;;;;;5058183;28;20270;-67
2022/05/23 01:32:33;;;;;;;0.07;0.07;;;;;;;;;;5097420;28;20212;-66
2022/05/23 01:34:59;;;;;;;0.00;0.00;;;;;;;;;;5066171;28;20206;-66
2022/05/23 01:37:25;;;;;;;0.00;0.00;;;;;;;;;;5087891;28;20307;-66
2022/05/23 01:39:51;;;;;;;0.07;0.07;;;;;;;;;;5066186;28;20204;-66
2022/05/23 01:42:18;;;;;;;0.00;0.00;;;;;;;;;;5087709;28;20510;-66
2022/05/23 01:44:45;;;;;;;0.10;0.10;;;;;;;;;;5066043;28;20501;-67
2022/05/23 01:47:13;;;;;;;0.10;0.10;;;;;;;;;;5087735;28;20239;-67
2022/05/23 01:49:41;;;;;;;0.10;0.10;;;;;;;;;;5065829;28;20212;-66
2022/05/23 01:52:08;;;;;;;0.10;0.10;;;;;;;;;;5087616;28;20239;-66
2022/05/23 01:54:34;;;;;;;0.10;0.10;;;;;;;;;;5065849;28;20565;-66
2022/05/23 01:57:00;;;;;;;0.10;0.10;;;;;;;;;;5086347;28;20291;-66
2022/05/23 02:02:12;;;;;;;0.00;0.00;;;;;;;;;;5087365;28;20258;-66
2022/05/23 02:04:38;;;;;;;0.10;0.10;;;;;;;;;;5065634;28;20210;-66
2022/05/23 02:07:05;;;;;;;0.10;0.10;;;;;;;;;;5087030;28;20261;-66
2022/05/23 02:09:31;;;;;;;0.10;0.10;;;;;;;;;;5065503;28;20250;-67
2022/05/23 02:11:57;;;;;;;0.00;0.00;;;;;;;;;;5085450;28;20760;-67
2022/05/23 02:14:24;;;;;;;0.10;0.10;;;;;;;;;;5067301;28;20243;-66
2022/05/23 02:16:50;;;;;;;0.10;0.10;;;;;;;;;;5083133;28;20239;-67
2022/05/23 02:19:17;;;;;;;0.00;0.00;;;;;;;;;;5069207;28;20510;-67
2022/05/23 02:21:44;;;;;;;0.10;0.10;;;;;;;;;;5081346;28;20237;-67
2022/05/23 02:24:10;;;;;;;0.10;0.10;;;;;;;;;;5070246;28;20320;-66
2022/05/23 02:26:36;;;;;;;0.10;0.10;;;;;;;;;;5079449;28;20389;-67
2022/05/23 02:29:03;;;;;;;0.00;0.00;;;;;;;;;;5072332;28;20209;-67
2022/05/23 02:31:31;;;;;;;0.03;0.03;;;;;;;;;;5077330;28;20267;-67
2022/05/23 02:33:57;;;;;;;0.10;0.10;;;;;;;;;;5073337;28;20239;-67
2022/05/23 02:36:25;;;;;;;0.10;0.10;;;;;;;;;;5075877;28;20250;-66
2022/05/23 02:38:51;;;;;;;0.10;0.10;;;;;;;;;;5075690;28;20493;-68
2022/05/23 02:41:17;;;;;;;0.10;0.10;;;;;;;;;;5073935;28;20242;-67
2022/05/23 02:43:44;;;;;;;0.10;0.10;;;;;;;;;;5077099;28;20225;-67
2022/05/23 02:46:10;;;;;;;0.10;0.10;;;;;;;;;;5071705;28;20239;-67
2022/05/23 02:48:36;;;;;;;0.10;0.10;;;;;;;;;;5079080;28;20206;-67
2022/05/23 02:51:02;;;;;;;0.00;0.00;;;;;;;;;;5069813;28;20585;-68
2022/05/23 02:53:30;;;;;;;0.00;0.00;;;;;;;;;;5081078;28;20204;-66
2022/05/23 02:55:56;;;;;;;0.00;0.00;;;;;;;;;;5068015;28;20475;-66
2022/05/23 02:58:22;;;;;;;0.00;0.00;;;;;;;;;;5082704;28;20358;-67
2022/05/23 03:00:48;;;;;;;0.10;0.10;;;;;;;;;;5065956;28;20241;-66
2022/05/23 03:03:14;;;;;;;0.10;0.10;;;;;;;;;;5084527;28;20279;-67
2022/05/23 03:05:40;;;;;;;0.10;0.10;;;;;;;;;;5063175;28;20470;-65
2022/05/23 03:08:07;;;;;;;0.10;0.10;;;;;;;;;;5086365;28;20205;-65
2022/05/23 03:10:36;;;;;;;0.10;0.10;;;;;;;;;;5061513;28;20306;-67
2022/05/23 03:13:02;;;;;;;0.10;0.10;;;;;;;;;;5087561;28;20189;-66
2022/05/23 03:15:30;;;;;;;0.07;0.07;;;;;;;;;;5060330;28;20288;-67
2022/05/23 03:17:56;;;;;;;0.10;0.10;;;;;;;;;;5089215;28;20207;-66
2022/05/23 03:20:22;;;;;;;0.10;0.10;;;;;;;;;;5058488;28;20205;-67
2022/05/23 03:28:19;;;;;;;0.10;0.10;;;;;;;;;;5083458;28;20630;-66
2022/05/23 03:30:46;;;;;;;0.10;0.10;;;;;;;;;;5064490;28;20243;-67
2022/05/23 03:33:12;;;;;;;0.10;0.10;;;;;;;;;;5084563;28;20243;-67
2022/05/23 03:35:39;;;;;;;0.10;0.10;;;;;;;;;;5062465;28;20297;-66
2022/05/23 03:38:05;;;;;;;0.10;0.10;;;;;;;;;;5086293;28;20208;-66
2022/05/23 03:40:36;;;;;;;0.03;0.03;;;;;;;;;;5060715;28;20293;-67
2022/05/23 03:43:02;;;;;;;0.10;0.10;;;;;;;;;;5087168;28;20214;-67
2022/05/23 03:45:30;;;;;;;0.10;0.10;;;;;;;;;;5058904;28;20305;-66
2022/05/23 03:47:57;;;;;;;0.00;0.00;;;;;;;;;;5088848;28;20242;-65
2022/05/23 03:50:24;;;;;;;0.10;0.10;;;;;;;;;;5057850;28;20205;-66
2022/05/23 03:52:50;;;;;;;0.10;0.10;;;;;;;;;;5090325;28;20479;-65
2022/05/23 03:55:17;;;;;;;0.07;0.07;;;;;;;;;;5054774;28;20205;-66
2022/05/23 03:57:43;;;;;;;0.00;0.00;;;;;;;;;;5092845;28;20192;-65
2022/05/23 04:00:12;;;;;;;0.10;0.10;;;;;;;;;;5053268;28;20219;-66
2022/05/23 04:02:40;;;;;;;0.10;0.10;;;;;;;;;;5093996;28;20231;-66
2022/05/23 04:05:07;;;;;;;0.23;0.23;;;;;;;;;;5058055;28;20212;-66
2022/05/23 04:07:35;;;;;;;0.10;0.10;;;;;;;;;;5094963;28;20247;-66
2022/05/23 04:10:01;;;;;;;0.10;0.10;;;;;;;;;;5063332;28;20431;-66
2022/05/23 04:12:27;;;;;;;0.10;0.10;;;;;;;;;;5085036;28;20576;-66
2022/05/23 04:14:53;;;;;;;0.10;0.10;;;;;;;;;;5063290;28;20242;-66
2022/05/23 04:17:19;;;;;;;0.10;0.10;;;;;;;;;;5085001;28;20568;-66
2022/05/23 04:19:48;;;;;;;0.10;0.10;;;;;;;;;;5063251;28;20250;-66
2022/05/23 04:22:14;;;;;;;0.10;0.10;;;;;;;;;;5084583;28;20242;-66
2022/05/23 04:24:40;;;;;;;0.00;0.00;;;;;;;;;;5063105;28;20510;-66
2022/05/23 04:27:06;;;;;;;0.03;0.03;;;;;;;;;;5084758;28;20558;-67
2022/05/23 04:29:33;;;;;;;0.10;0.10;;;;;;;;;;5062679;28;20356;-67
2022/05/23 04:31:59;;;;;;;0.10;0.10;;;;;;;;;;5082997;28;20241;-67
2022/05/23 04:37:10;;;;;;;0.10;0.10;;;;;;;;;;5084828;28;20539;-66
2022/05/23 04:39:37;;;;;;;0.10;0.10;;;;;;;;;;5062498;28;20211;-66
2022/05/23 04:42:04;;;;;;;0.10;0.10;;;;;;;;;;5083947;28;20287;-67
2022/05/23 04:44:32;;;;;;;0.00;0.00;;;;;;;;;;5063097;28;20238;-66
2022/05/23 04:49:50;;;;;;;0.07;0.07;;;;;;;;;;5024293;28;20194;-66
2022/05/23 04:52:22;;;;;;;0.10;0.10;;;;;;;;;;5084572;28;20238;-65
2022/05/23 04:54:48;;;;;;;0.03;0.03;;;;;;;;;;5063065;28;20207;-67
2022/05/23 04:57:15;;;;;;;0.10;0.10;;;;;;;;;;5088499;28;20312;-66
2022/05/23 04:59:42;;;;;;;0.10;0.10;;;;;;;;;;5066837;28;20215;-67
2022/05/23 05:02:08;;;;;;;0.00;0.00;;;;;;;;;;5088622;28;20244;-66
2022/05/23 05:04:34;;;;;;;0.10;0.10;;;;;;;;;;5066744;28;20238;-65
2022/05/23 05:07:00;;;;;;;0.10;0.10;;;;;;;;;;5087070;28;20292;-67
2022/05/23 05:09:28;;;;;;;0.10;0.10;;;;;;;;;;5067804;28;20212;-66
2022/05/23 05:11:54;;;;;;;0.00;0.00;;;;;;;;;;5085475;28;20548;-67
2022/05/23 05:14:20;;;;;;;0.10;0.10;;;;;;;;;;5069282;28;20254;-67
2022/05/23 05:16:47;;;;;;;0.10;0.10;;;;;;;;;;5083329;28;20269;-67
2022/05/23 05:19:13;;;;;;;0.10;0.10;;;;;;;;;;5071371;28;20203;-67
2022/05/23 05:21:39;;;;;;;0.10;0.10;;;;;;;;;;5081172;28;20246;-67
2022/05/23 05:24:06;;;;;;;0.10;0.10;;;;;;;;;;5072975;28;20539;-67
2022/05/23 05:26:33;;;;;;;0.10;0.10;;;;;;;;;;5078993;28;20240;-67
2022/05/23 05:29:02;;;;;;;0.10;0.10;;;;;;;;;;5074685;28;20209;-67
2022/05/23 05:31:31;;;;;;;0.10;0.10;;;;;;;;;;5077899;28;20247;-67
2022/05/23 05:34:01;;;;;;;0.10;0.10;;;;;;;;;;5074755;28;20218;-67
2022/05/23 05:36:31;;;;;;;0.00;0.00;;;;;;;;;;5077515;28;20240;-66
2022/05/23 05:38:59;;;;;;;0.00;0.00;;;;;;;;;;5075107;28;20231;-67
2022/05/23 05:41:28;;;;;;;0.10;0.10;;;;;;;;;;5077072;28;20243;-67
2022/05/23 05:43:58;;;;;;;0.10;0.10;;;;;;;;;;5075588;28;20528;-66
2022/05/23 05:46:27;;;;;;;0.10;0.10;;;;;;;;;;5076535;28;20304;-66
2022/05/23 05:48:55;;;;;;;0.00;0.00;;;;;;;;;;5075914;28;20204;-67
2022/05/23 05:51:22;;;;;;;0.10;0.10;;;;;;;;;;5075417;28;20333;-66
2022/05/23 05:53:49;;;;;;;0.00;0.00;;;;;;;;;;5077428;28;20255;-66
2022/05/23 05:56:16;;;;;;;0.10;0.10;;;;;;;;;;5073868;28;20262;-67
2022/05/23 05:58:42;;;;;;;0.03;0.03;;;;;;;;;;5078829;28;20254;-67
2022/05/23 06:01:10;;;;;;;0.10;0.10;;;;;;;;;;5071030;28;20242;-67
2022/05/23 06:03:37;;;;;;;0.00;0.00;;;;;;;;;;5081489;28;20461;-67
2022/05/23 06:11:32;;;;;;;0.10;0.10;;;;;;;;;;5077342;28;20302;-67
2022/05/23 06:13:59;;;;;;;0.03;0.03;;;;;;;;;;5075058;28;20254;-67
2022/05/23 06:16:27;;;;;;;0.10;0.10;;;;;;;;;;5076864;28;20241;-68
2022/05/23 06:18:54;;;;;;;0.10;0.10;;;;;;;;;;5075812;28;20211;-66
2022/05/23 06:21:20;;;;;;;0.00;0.00;;;;;;;;;;5074821;28;20288;-67
2022/05/23 06:23:47;;;;;;;0.10;0.10;;;;;;;;;;5077458;28;20397;-67
2022/05/23 06:26:14;;;;;;;0.03;0.03;;;;;;;;;;5073236;28;20455;-68
2022/05/23 06:28:40;;;;;;;0.00;0.00;;;;;;;;;;5079014;28;20209;-67
2022/05/23 06:31:06;;;;;;;0.10;0.10;;;;;;;;;;5070362;28;20315;-68
2022/05/23 06:33:34;;;;;;;0.10;0.10;;;;;;;;;;5081672;28;20214;-69
2022/05/23 06:36:00;;;;;;;0.00;0.00;;;;;;;;;;5069619;28;20249;-66
2022/05/23 06:38:26;;;;;;;0.00;0.00;;;;;;;;;;5082561;28;20205;-67
2022/05/23 06:40:53;;;;;;;0.10;0.10;;;;;;;;;;5067447;28;20321;-67
2022/05/23 06:43:20;;;;;;;0.00;0.00;;;;;;;;;;5084294;28;20229;-67
2022/05/23 06:45:47;;;;;;;0.00;0.00;;;;;;;;;;5065331;28;20248;-69
2022/05/23 06:48:13;;;;;;;0.00;0.00;;;;;;;;;;5085995;28;20270;-67
2022/05/23 06:50:41;;;;;;;0.10;0.10;;;;;;;;;;5063706;28;20248;-67
2022/05/23 06:53:08;;;;;;;0.00;0.00;;;;;;;;;;5087375;28;20252;-68
2022/05/23 06:55:34;;;;;;;0.00;0.00;;;;;;;;;;5061712;28;20349;-69
2022/05/23 06:58:00;;;;;;;0.10;0.10;;;;;;;;;;5088763;28;20203;-68
2022/05/23 07:00:27;;;;;;;0.03;0.03;;;;;;;;;;5060357;28;20253;-67
2022/05/23 07:02:53;;;;;;;0.10;0.10;;;;;;;;;;5090372;28;20252;-67
2022/05/23 07:13:35;;;;;;;0.10;0.10;;;;;;;;;;5079097;28;20212;-66
2022/05/23 07:16:02;;;;;;;0.00;0.00;;;;;;;;;;5069389;28;20270;-67
2022/05/23 07:18:30;;;;;;;0.00;0.00;;;;;;;;;;5081026;28;20206;-67
2022/05/23 07:20:56;;;;;;;0.00;0.00;;;;;;;;;;5067571;28;20296;-68
2022/05/23 07:23:24;;;;;;;0.05;0.05;;;;;;;;;;5082216;28;20218;-68
2022/05/23 07:25:50;;;;;;;0.08;0.08;;;;;;;;;;5065792;28;20239;-68
2022/05/23 07:28:16;;;;;;;0.00;0.00;;;;;;;;;;5083843;28;20238;-68
2022/05/23 07:30:43;;;;;;;0.10;0.10;;;;;;;;;;5063971;28;20266;-69
2022/05/23 07:33:11;;;;;;;0.10;0.10;;;;;;;;;;5085697;28;20204;-68
2022/05/23 07:35:37;;;;;;;0.10;0.10;;;;;;;;;;5062347;28;20244;-67
2022/05/23 07:38:04;;;;;;;0.00;0.00;;;;;;;;;;5087071;28;20503;-66
2022/05/23 07:40:31;;;;;;;0.10;0.10;;;;;;;;;;5060266;28;20280;-66
2022/05/23 07:42:57;;;;;;;0.03;0.03;;;;;;;;;;5088873;28;20196;-66
2022/05/23 07:45:24;;;;;;;0.00;0.00;;;;;;;;;;5058647;28;20225;-67
2022/05/23 07:47:50;;;;;;;0.10;0.10;;;;;;;;;;5090652;28;20192;-67
2022/05/23 07:50:19;;;;;;;0.00;0.00;;;;;;;;;;5056620;28;20204;-66
2022/05/23 08:00:31;;;;;;;0.00;0.00;;;;;;;;;;5091614;28;20395;-67
2022/05/23 08:01:01;;;;;;;0.03;0.03;;;;;;;;;;5067875;28;20599;-67
2022/05/23 08:03:27;;;;;;;0.00;0.00;;;;;;;;;;5080265;28;20204;-68
2022/05/23 08:05:54;;;;;;;0.05;0.05;;;;;;;;;;5066097;28;20288;-68
2022/05/23 08:08:21;;;;;;;0.10;0.10;;;;;;;;;;5081613;28;20204;-67
2022/05/23 08:10:48;;;;;;;0.00;0.00;;;;;;;;;;5063898;28;20421;-66
2022/05/23 08:13:15;;;;;;;0.00;0.00;;;;;;;;;;5083998;28;20508;-67
2022/05/23 08:15:41;;;;;;;0.00;0.00;;;;;;;;;;5062389;28;20250;-67
2022/05/23 08:18:08;;;;;;;0.10;0.10;;;;;;;;;;5085178;28;20205;-66
2022/05/23 08:20:35;;;;;;;0.00;0.00;;;;;;;;;;5060769;28;20238;-67
2022/05/23 08:23:01;;;;;;;0.00;0.00;;;;;;;;;;5086659;28;20220;-65
2022/05/23 08:25:28;;;;;;;0.03;0.03;;;;;;;;;;5058444;28;20283;-67
2022/05/23 08:27:56;;;;;;;0.00;0.00;;;;;;;;;;5089078;28;20209;-66
2022/05/23 08:30:23;;;;;;;0.00;0.00;;;;;;;;;;5056370;28;20226;-66
2022/05/23 08:32:49;;;;;;;0.10;0.10;;;;;;;;;;5090925;28;20348;-67
2022/05/23 08:35:17;;;;;;;0.00;0.00;;;;;;;;;;5055416;28;20247;-66
2022/05/23 08:37:43;;;;;;;0.00;0.00;;;;;;;;;;5092023;28;20194;-67
2022/05/23 08:40:10;;;;;;;0.00;0.00;;;;;;;;;;5054096;28;20209;-67
2022/05/23 08:42:41;;;;;;;0.00;0.00;;;;;;;;;;5093479;28;20562;-66
2022/05/23 08:45:13;;;;;;;0.03;0.03;;;;;;;;;;5053540;28;20232;-66
2022/05/23 08:47:44;;;;;;;0.00;0.00;;;;;;;;;;5092751;28;20194;-67
2022/05/23 08:50:13;;;;;;;0.05;0.05;;;;;;;;;;5053843;28;20210;-67
2022/05/23 08:52:42;;;;;;;0.10;0.10;;;;;;;;;;5092840;28;20220;-67
2022/05/23 08:55:10;;;;;;;0.10;0.10;;;;;;;;;;5053581;28;20202;-66
2022/05/23 08:57:39;;;;;;;0.00;0.00;;;;;;;;;;5093504;28;20198;-67
2022/05/23 09:00:08;;;;;;;0.00;0.00;;;;;;;;;;5054861;28;20271;-66
2022/05/23 09:02:39;;;;;;;0.00;0.00;;;;;;;;;;5093521;28;20217;-67
2022/05/23 09:05:09;;;;;;;0.00;0.00;;;;;;;;;;5058506;28;20242;-67
2022/05/23 09:07:38;;;;;;;0.00;0.00;;;;;;;;;;5093544;28;20226;-67
2022/05/23 09:10:06;;;;;;;0.10;0.10;;;;;;;;;;5062923;28;20298;-66
2022/05/23 09:12:33;;;;;;;0.10;0.10;;;;;;;;;;5051233;28;20211;-66
2022/05/23 09:14:59;;;;;;;0.00;0.00;;;;;;;;;;5062902;28;20203;-67
2022/05/23 09:17:27;;;;;;;0.00;0.00;;;;;;;;;;5084541;28;20245;-67
2022/05/23 09:20:00;;;;;;;0.00;0.00;;;;;;;;;;5062965;28;20240;-68
2022/05/23 09:22:34;;;;;;;0.00;0.00;;;;;;;;;;5084451;28;20245;-66
2022/05/23 09:25:01;;;;;;;0.10;0.10;;;;;;;;;;5062225;28;20249;-67
2022/05/23 09:27:34;;;;;;;0.00;0.00;;;;;;;;;;5084412;28;20249;-67
2022/05/23 09:30:01;;;;;;;0.10;0.10;;;;;;;;;;5062750;28;20245;-68
2022/05/23 09:32:29;;;;;;;0.00;0.00;;;;;;;;;;5084480;28;20268;-67
2022/05/23 09:34:59;;;;;;;0.00;0.00;;;;;;;;;;5062802;28;20528;-67
2022/05/23 09:37:30;;;;;;;0.00;0.00;;;;;;;;;;5084334;28;20262;-67
2022/05/23 09:39:57;;;;;;;0.00;0.00;;;;;;;;;;5062756;28;20245;-68
2022/05/23 09:48:09;;;;;;;0.10;0.10;;;;;;;;;;5088084;28;20271;-67
2022/05/23 09:50:38;;;;;;;0.08;0.08;;;;;;;;;;5063663;28;20245;-67
2022/05/23 09:53:04;;;;;;;0.00;0.00;;;;;;;;;;5089259;28;20239;-67
2022/05/23 09:55:33;;;;;;;0.00;0.00;;;;;;;;;;5062500;28;20241;-66
2022/05/23 09:58:00;;;;;;;0.10;0.10;;;;;;;;;;5090432;28;20268;-66
2022/05/23 10:00:32;;;;;;;0.00;0.00;;;;;;;;;;5061429;28;20272;-67
2022/05/23 10:03:01;;;;;;;0.10;0.10;;;;;;;;;;5090618;28;20209;-66
2022/05/23 10:05:30;;;;;;;0.00;0.00;;;;;;;;;;5061315;28;20307;-66
2022/05/23 10:08:00;;;;;;;0.00;0.00;;;;;;;;;;5090920;28;20214;-66
2022/05/23 10:10:27;;;;;;;0.00;0.00;;;;;;;;;;5061252;28;21175;-66
2022/05/23 10:13:11;;;;;;;0.00;0.00;;;;;;;;;;5091787;28;20199;-66
2022/05/23 10:15:43;;;;;;;0.00;0.00;;;;;;;;;;5064152;28;20243;-67
2022/05/23 10:18:10;;;;;;;0.00;0.00;;;;;;;;;;5087354;28;20207;-67
2022/05/23 10:20:38;;;;;;;0.00;0.00;;;;;;;;;;5063628;28;20485;-66
2022/05/23 10:23:07;;;;;;;0.00;0.00;;;;;;;;;;5088446;28;20271;-67
2022/05/23 10:25:37;;;;;;;0.00;0.00;;;;;;;;;;5062433;28;20269;-67
2022/05/23 10:28:07;;;;;;;0.00;0.00;;;;;;;;;;5088797;28;20217;-67
2022/05/23 10:30:35;;;;;;;0.00;0.00;;;;;;;;;;5062595;28;20496;-67
2022/05/23 10:33:04;;;;;;;0.00;0.00;;;;;;;;;;5089265;28;20193;-68
2022/05/23 10:35:35;;;;;;;0.00;0.00;;;;;;;;;;5061651;28;20241;-67
2022/05/23 10:43:28;;;;;;;0.00;0.00;;;;;;;;;;5082202;28;20341;-66
2022/05/23 10:45:55;;;;;;;0.00;0.00;;;;;;;;;;5067757;28;20289;-66
2022/05/23 10:48:38;;;;;;;0.10;0.10;;;;;;;;;;5083422;28;20382;-67
2022/05/23 10:51:10;;;;;;;0.00;0.00;;;;;;;;;;5070563;28;20412;-67
2022/05/23 10:53:42;;;;;;;0.10;0.10;;;;;;;;;;5078811;28;20277;-67
2022/05/23 10:56:16;;;;;;;0.00;0.00;;;;;;;;;;5071252;28;20246;-65
2022/05/23 10:58:44;;;;;;;0.00;0.00;;;;;;;;;;5078111;28;20217;-67
2022/05/23 11:01:18;;;;;;;0.00;0.00;;;;;;;;;;5071683;28;20279;-66
2022/05/23 11:04:01;;;;;;;0.00;0.00;;;;;;;;;;5077346;28;20250;-67
2022/05/23 11:06:34;;;;;;;0.10;0.10;;;;;;;;;;5076020;28;20244;-67
2022/05/23 11:09:05;;;;;;;0.00;0.00;;;;;;;;;;5073022;28;20205;-67
2022/05/23 11:11:40;;;;;;;0.00;0.00;;;;;;;;;;5077442;28;20247;-67
2022/05/23 11:14:10;;;;;;;0.00;0.00;;;;;;;;;;5071389;28;20528;-67
2022/05/23 11:16:38;;;;;;;0.00;0.00;;;;;;;;;;5078468;28;20255;-67
2022/05/23 11:19:13;;;;;;;0.00;0.00;;;;;;;;;;5071553;28;20214;-67
2022/05/23 11:21:42;;;;;;;0.00;0.00;;;;;;;;;;5079059;28;20247;-66
2022/05/23 11:24:12;;;;;;;0.00;0.00;;;;;;;;;;5070221;28;20205;-68
2022/05/23 11:26:43;;;;;;;0.00;0.00;;;;;;;;;;5078939;28;20583;-67
2022/05/23 11:34:38;;;;;;;0.00;0.00;;;;;;;;;;5064197;28;20225;-67
2022/05/23 11:37:42;;;;;;;0.00;0.00;;;;;;;;;;5085756;28;20241;-66
2022/05/23 11:39:57;;;;;;;0.10;0.10;;;;;;;;;;5064296;28;20207;-67
2022/05/23 11:42:28;;;;;;;0.10;0.10;;;;;;;;;;5086083;28;20246;-67
2022/05/23 11:44:57;;;;;;;0.00;0.00;;;;;;;;;;5064152;28;20209;-67
2022/05/23 11:47:25;;;;;;;0.00;0.00;;;;;;;;;;5085804;28;20298;-67
2022/05/23 11:50:02;;;;;;;0.00;0.00;;;;;;;;;;5064021;28;20212;-67
2022/05/23 11:52:33;;;;;;;0.10;0.10;;;;;;;;;;5085684;28;20248;-67
2022/05/23 11:54:59;;;;;;;0.20;0.20;;;;;;;;;;5064039;28;20227;-67
2022/05/23 11:57:36;;;;;;;0.00;0.00;;;;;;;;;;5085590;28;20239;-67
2022/05/23 12:00:06;;;;;;;0.10;0.10;;;;;;;;;;5063403;28;20215;-67
2022/05/23 12:02:37;;;;;;;0.00;0.00;;;;;;;;;;5085691;28;20257;-68
2022/05/23 12:05:28;;;;;;;0.00;0.00;;;;;;;;;;5063064;28;20250;-68
2022/05/23 12:07:58;;;;;;;0.00;0.00;;;;;;;;;;5076394;28;20439;-69
2022/05/23 12:10:41;;;;;;;0.00;0.00;;;;;;;;;;5058205;28;20211;-71
2022/05/23 12:13:22;;;;;;;0.00;0.00;;;;;;;;;;5086412;28;20232;-70
2022/05/23 12:15:54;;;;;;;0.00;0.00;;;;;;;;;;5064056;28;20416;-70
2022/05/23 12:18:38;;;;;;;0.00;0.00;;;;;;;;;;5082729;28;20282;-70
2022/05/23 12:21:06;;;;;;;0.00;0.00;;;;;;;;;;5068484;28;20239;-69
2022/05/23 12:23:35;;;;;;;0.00;0.00;;;;;;;;;;5079112;28;20514;-69
2022/05/23 12:26:07;;;;;;;0.00;0.00;;;;;;;;;;5068149;28;20612;-68
2022/05/23 12:28:43;;;;;;;0.00;0.00;;;;;;;;;;5078571;28;20206;-69
2022/05/23 12:31:12;;;;;;;0.00;0.00;;;;;;;;;;5069378;28;20307;-70
2022/05/23 12:33:41;;;;;;;0.00;0.00;;;;;;;;;;5078099;28;20253;-68
2022/05/23 12:36:09;;;;;;;0.00;0.00;;;;;;;;;;5069698;28;20322;-65
2022/05/23 12:38:48;;;;;;;0.00;0.00;;;;;;;;;;5078044;28;20236;-73
2022/05/23 12:41:18;;;;;;;0.08;0.08;;;;;;;;;;5071688;28;20245;-62
2022/05/23 12:43:53;;;;;;;0.00;0.00;;;;;;;;;;5075402;28;20195;-61
2022/05/23 12:46:27;;;;;;;0.00;0.00;;;;;;;;;;5072952;28;20251;-62
2022/05/23 12:48:58;;;;;;;0.03;0.03;;;;;;;;;;5073327;28;20219;-62
2022/05/23 12:51:31;;;;;;;0.00;0.00;;;;;;;;;;5074038;28;20248;-62
2022/05/23 12:54:18;;;;;;;0.00;0.00;;;;;;;;;;5072051;28;20281;-62
2022/05/23 12:56:54;;;;;;;0.00;0.00;;;;;;;;;;5046287;28;20353;-62
2022/05/23 12:59:31;;;;;;;0.00;0.00;;;;;;;;;;5064438;28;20213;-64
2022/05/23 13:02:02;;;;;;;0.10;0.10;;;;;;;;;;5082789;28;20239;-63
2022/05/23 13:04:34;;;;;;;0.00;0.00;;;;;;;;;;5063503;28;20215;-62
2022/05/23 13:07:02;;;;;;;0.00;0.00;;;;;;;;;;5083442;28;20239;-63
2022/05/23 13:09:33;;;;;;;0.17;0.17;;;;;;;;;;5063319;28;20400;-62
2022/05/23 13:12:05;;;;;;;0.08;0.08;;;;;;;;;;5083194;28;20240;-61
2022/05/23 13:14:45;;;;;;;0.00;0.00;;;;;;;;;;5062961;28;20210;-62
2022/05/23 13:17:13;;;;;;;0.00;0.00;;;;;;;;;;5087066;28;20266;-62
2022/05/23 13:22:33;;;;;;;0.08;0.08;;;;;;;;;;5054884;28;20271;-62
2022/05/23 13:25:00;;;;;;;0.00;0.00;;;;;;;;;;5066738;28;20200;-61
2022/05/23 13:27:28;;;;;;;0.10;0.10;;;;;;;;;;5088334;28;20316;-62
2022/05/23 13:29:55;;;;;;;0.00;0.00;;;;;;;;;;5066176;28;20207;-62
2022/05/23 13:32:23;;;;;;;0.00;0.00;;;;;;;;;;5088267;28;20307;-62
2022/05/23 13:34:50;;;;;;;0.00;0.00;;;;;;;;;;5066577;28;20228;-63
2022/05/23 13:37:27;;;;;;;0.00;0.00;;;;;;;;;;5087960;28;20576;-62
2022/05/23 13:39:54;;;;;;;0.05;0.05;;;;;;;;;;5066441;28;20204;-62
2022/05/23 13:42:20;;;;;;;0.10;0.10;;;;;;;;;;5088023;28;20251;-62
2022/05/23 13:44:47;;;;;;;0.00;0.00;;;;;;;;;;5066355;28;20208;-63
2022/05/23 13:47:16;;;;;;;1.60;1.60;;;;;;;;;;5087920;28;20240;-62
2022/05/23 13:49:46;;;;;;;0.00;0.00;;;;;;;;;;5066205;28;20213;-61
2022/05/23 13:52:15;;;;;;;0.00;0.00;;;;;;;;;;5087937;28;20445;-62
2022/05/23 13:54:47;;;;;;;0.20;0.20;;;;;;;;;;5066127;28;20246;-63
2022/05/23 13:57:15;;;;;;;0.00;0.00;;;;;;;;;;5087801;28;20276;-61
2022/05/23 13:59:42;;;;;;;0.00;0.00;;;;;;;;;;5066146;28;20267;-62
2022/05/23 14:02:11;;;;;;;0.00;0.00;;;;;;;;;;5087732;28;20652;-61
2022/05/23 14:04:38;;;;;;;0.00;0.00;;;;;;;;;;5065916;28;20207;-62
2022/05/23 14:07:09;;;;;;;0.00;0.00;;;;;;;;;;5087239;28;20302;-61
2022/05/23 14:09:40;;;;;;;0.00;0.00;;;;;;;;;;5065838;28;20211;-62
2022/05/23 14:12:09;;;;;;;0.00;0.00;;;;;;;;;;5087608;28;20240;-62
2022/05/23 14:14:39;;;;;;;0.00;0.00;;;;;;;;;;5065748;28;20215;-62
2022/05/23 14:17:21;;;;;;;0.00;0.00;;;;;;;;;;5087415;28;20565;-61
2022/05/23 14:19:49;;;;;;;0.00;0.00;;;;;;;;;;5065777;28;20394;-61
2022/05/23 14:22:23;;;;;;;0.00;0.00;;;;;;;;;;5087407;28;20432;-62
2022/05/23 14:24:50;;;;;;;0.00;0.00;;;;;;;;;;5065585;28;20203;-62
2022/05/23 14:27:19;;;;;;;0.00;0.00;;;;;;;;;;5087029;28;20271;-62
2022/05/23 14:29:45;;;;;;;0.10;0.10;;;;;;;;;;5064981;28;20770;-62
2022/05/23 14:32:13;;;;;;;0.00;0.00;;;;;;;;;;5087224;28;20240;-62
2022/05/23 14:34:41;;;;;;;0.00;0.00;;;;;;;;;;5064999;28;20211;-61
2022/05/23 14:37:09;;;;;;;0.00;0.00;;;;;;;;;;5087133;28;20588;-61
2022/05/23 14:39:37;;;;;;;0.00;0.00;;;;;;;;;;5065369;28;20215;-62
2022/05/23 14:42:18;;;;;;;0.13;0.13;;;;;;;;;;5086443;28;20568;-61
2022/05/23 14:44:44;;;;;;;0.00;0.00;;;;;;;;;;5062243;28;20448;-61
2022/05/23 14:47:20;;;;;;;0.38;0.20;;;;;;;;;;5086883;28;20301;-63
2022/05/23 14:49:56;;;;;;;0.10;0.10;;;;;;;;;;5065139;28;20214;-62
2022/05/23 14:52:24;;;;;;;0.00;0.00;;;;;;;;;;5086857;28;20250;-63
2022/05/23 15:00:39;;;;;;;0.00;0.00;;;;;;;;;;5057468;28;20204;-61
2022/05/23 15:03:07;;;;;;;0.00;0.00;;;;;;;;;;5087885;28;20202;-61
2022/05/23 15:05:33;;;;;;;0.65;0.30;;;;;;;;;;5061154;28;20251;-62
2022/05/23 15:08:00;;;;;;;0.10;0.10;;;;;;;;;;5089248;28;20233;-61
2022/05/23 15:10:29;;;;;;;0.00;0.00;;;;;;;;;;5059875;28;20250;-63
2022/05/23 15:12:55;;;;;;;0.00;0.00;;;;;;;;;;5090453;28;20196;-62
2022/05/23 15:15:22;;;;;;;0.00;0.00;;;;;;;;;;5058675;28;20205;-62
2022/05/23 15:17:48;;;;;;;0.00;0.00;;;;;;;;;;5091926;28;20190;-61
2022/05/23 15:20:15;;;;;;;0.00;0.00;;;;;;;;;;5056034;28;20510;-61
2022/05/23 15:22:41;;;;;;;0.00;0.00;;;;;;;;;;5093932;28;20220;-62
2022/05/23 15:25:09;;;;;;;0.00;0.00;;;;;;;;;;5054250;28;20209;-61
2022/05/23 15:27:38;;;;;;;0.00;0.00;;;;;;;;;;5095250;28;20242;-62
2022/05/23 15:30:06;;;;;;;0.00;0.00;;;;;;;;;;5064198;28;20209;-61
2022/05/23 15:32:32;;;;;;;0.00;0.00;;;;;;;;;;5052473;28;20206;-62
2022/05/23 15:34:59;;;;;;;0.08;0.08;;;;;;;;;;5064182;28;20234;-61
2022/05/23 15:37:25;;;;;;;0.08;0.08;;;;;;;;;;5085814;28;20238;-61
2022/05/23 15:39:51;;;;;;;0.00;0.00;;;;;;;;;;5062611;28;20206;-62
2022/05/23 15:42:21;;;;;;;0.00;0.00;;;;;;;;;;5085732;28;20257;-62
2022/05/23 15:44:50;;;;;;;0.00;0.00;;;;;;;;;;5063966;28;20206;-61
2022/05/23 15:47:17;;;;;;;0.05;0.05;;;;;;;;;;5085491;28;20233;-62
2022/05/23 15:49:45;;;;;;;0.10;0.10;;;;;;;;;;5063340;28;20218;-63
2022/05/23 15:52:11;;;;;;;0.00;0.00;;;;;;;;;;5085420;28;20245;-63